Time;durP1;ratioP1;P1;durP2;ratioP2;P2;SDS_P1;SDS_P2;PMS_P1;PMS_P2;Temp;Humidity;BMP_temperature;BMP_pressure;BME280_temperature;BME280_humidity;BME280_pressure;Samples;Min_cycle;Max_cycle;Signal;HPM_P1;HPM_P2
2023/06/26 00:00:49;;;;;;;10.98;2.20;;;28.90;98.90;;;;;;5086963;28;20316;-57
2023/06/26 00:03:15;;;;;;;8.50;1.50;;;28.80;98.90;;;;;;5087207;28;20028;-57
2023/06/26 00:05:42;;;;;;;4.05;0.90;;;28.80;99.00;;;;;;5086889;28;20212;-58
2023/06/26 00:08:09;;;;;;;7.97;1.30;;;28.70;99.10;;;;;;5087044;28;20023;-57
2023/06/26 00:10:37;;;;;;;5.82;1.13;;;28.70;99.20;;;;;;5085562;28;20020;-55
2023/06/26 00:13:03;;;;;;;8.13;1.25;;;28.70;99.20;;;;;;5085914;28;20031;-57
2023/06/26 00:15:31;;;;;;;5.25;1.10;;;28.70;99.30;;;;;;5086632;28;20126;-58
2023/06/26 00:17:59;;;;;;;5.45;1.45;;;28.70;99.30;;;;;;5086514;28;20020;-59
2023/06/26 00:20:25;;;;;;;2.55;1.00;;;28.70;99.40;;;;;;5084574;28;20241;-59
2023/06/26 00:22:53;;;;;;;7.65;1.85;;;28.60;99.30;;;;;;5086257;28;20204;-55
2023/06/26 00:25:20;;;;;;;2.00;0.95;;;28.50;99.30;;;;;;5085666;28;20038;-53
2023/06/26 00:27:46;;;;;;;12.10;1.40;;;28.40;99.30;;;;;;5086166;28;20051;-57
2023/06/26 00:30:13;;;;;;;6.10;1.00;;;28.30;99.60;;;;;;5086651;28;20316;-54
2023/06/26 00:32:40;;;;;;;5.35;1.33;;;28.30;99.80;;;;;;5087019;28;20035;-60
2023/06/26 00:35:07;;;;;;;5.15;0.75;;;28.30;99.90;;;;;;5086383;28;20227;-54
2023/06/26 00:37:33;;;;;;;6.00;1.00;;;28.30;99.90;;;;;;5086823;28;20259;-61
2023/06/26 00:40:00;;;;;;;3.70;0.82;;;28.30;99.90;;;;;;5085666;28;20088;-58
2023/06/26 00:42:26;;;;;;;3.10;1.88;;;28.20;99.90;;;;;;5081709;28;20073;-60
2023/06/26 00:44:53;;;;;;;5.00;1.38;;;28.20;99.90;;;;;;5081192;28;20040;-54
2023/06/26 00:47:20;;;;;;;3.85;0.90;;;28.20;99.90;;;;;;5084599;28;20024;-56
2023/06/26 00:49:46;;;;;;;3.08;0.82;;;28.20;99.90;;;;;;5086211;28;20020;-56
2023/06/26 00:52:13;;;;;;;4.60;0.80;;;28.20;99.90;;;;;;5086239;28;20050;-57
2023/06/26 00:54:40;;;;;;;5.07;1.00;;;28.10;99.90;;;;;;5086181;28;20023;-52
2023/06/26 00:57:06;;;;;;;3.78;1.05;;;28.10;99.90;;;;;;5085701;28;20056;-55
2023/06/26 00:59:33;;;;;;;3.35;0.85;;;28.00;99.90;;;;;;5085918;28;20208;-54
2023/06/26 01:01:59;;;;;;;6.55;1.10;;;28.10;99.90;;;;;;5086196;28;20065;-63
2023/06/26 01:04:27;;;;;;;3.08;1.17;;;28.10;99.90;;;;;;5085860;28;20107;-60
2023/06/26 01:06:55;;;;;;;6.05;2.38;;;28.00;99.90;;;;;;5084875;28;20047;-59
2023/06/26 01:09:23;;;;;;;4.93;1.92;;;28.00;99.90;;;;;;5084491;28;20029;-58
2023/06/26 01:11:50;;;;;;;3.63;1.30;;;28.10;99.90;;;;;;5095878;28;20039;-57
2023/06/26 01:14:16;;;;;;;4.88;1.30;;;28.00;99.90;;;;;;5084119;28;20308;-61
2023/06/26 01:16:47;;;;;;;5.28;2.40;;;28.00;99.90;;;;;;5085177;28;20032;-58
2023/06/26 01:19:34;;;;;;;10.10;3.35;;;28.00;99.90;;;;;;5085642;28;20036;-57
2023/06/26 01:22:14;;;;;;;7.53;2.38;;;28.00;99.90;;;;;;5085497;28;20027;-56
2023/06/26 01:25:00;;;;;;;5.30;1.58;;;28.00;99.90;;;;;;5084952;28;20344;-57
2023/06/26 01:27:30;;;;;;;4.13;1.80;;;28.00;99.90;;;;;;5085787;28;20034;-56
2023/06/26 01:29:56;;;;;;;11.38;3.20;;;28.00;99.90;;;;;;5084938;28;20320;-59
2023/06/26 01:32:23;;;;;;;10.27;3.20;;;28.00;99.90;;;;;;5085504;28;20028;-57
2023/06/26 01:34:50;;;;;;;7.55;2.75;;;28.00;99.90;;;;;;5085405;28;20317;-59
2023/06/26 01:37:16;;;;;;;6.03;2.53;;;28.00;99.90;;;;;;5085041;28;20036;-56
2023/06/26 01:39:43;;;;;;;5.60;2.13;;;28.00;99.90;;;;;;5084447;28;20091;-59
2023/06/26 01:42:11;;;;;;;6.47;2.08;;;28.00;99.90;;;;;;5085900;28;20050;-56
2023/06/26 01:44:45;;;;;;;6.47;1.90;;;27.90;99.90;;;;;;5084931;28;20047;-59
2023/06/26 01:47:17;;;;;;;8.27;2.00;;;27.90;99.90;;;;;;5085275;28;20196;-59
2023/06/26 01:50:14;;;;;;;6.20;2.15;;;28.00;99.90;;;;;;5085136;28;20029;-58
2023/06/26 01:52:59;;;;;;;6.13;2.40;;;28.00;99.90;;;;;;5085592;28;20066;-60
2023/06/26 01:55:45;;;;;;;4.88;2.20;;;28.00;99.90;;;;;;5084497;28;20056;-58
2023/06/26 01:58:13;;;;;;;6.03;2.20;;;28.00;99.90;;;;;;5084369;28;20068;-57
2023/06/26 02:00:41;;;;;;;5.22;2.63;;;28.00;99.90;;;;;;5084856;28;20358;-57
2023/06/26 02:03:07;;;;;;;4.70;2.40;;;28.00;99.90;;;;;;5084780;28;20247;-56
2023/06/26 02:05:34;;;;;;;10.00;2.70;;;28.00;99.90;;;;;;5084568;28;20245;-56
2023/06/26 02:08:04;;;;;;;8.55;2.20;;;28.00;99.90;;;;;;5085020;28;20104;-55
2023/06/26 02:10:30;;;;;;;5.82;2.40;;;28.00;99.90;;;;;;5084373;28;20187;-55
2023/06/26 02:12:57;;;;;;;5.70;2.40;;;28.00;99.90;;;;;;5083072;28;20080;-60
2023/06/26 02:15:23;;;;;;;7.38;2.30;;;28.00;99.90;;;;;;5083681;28;20247;-60
2023/06/26 02:17:50;;;;;;;6.88;1.63;;;28.00;99.90;;;;;;5084020;28;20020;-58
2023/06/26 02:20:17;;;;;;;6.63;1.42;;;28.00;99.90;;;;;;5084395;28;20227;-60
2023/06/26 02:22:43;;;;;;;5.03;1.50;;;28.00;99.90;;;;;;5084490;28;20040;-59
2023/06/26 02:25:12;;;;;;;8.30;1.70;;;27.90;99.90;;;;;;5083991;28;20017;-60
2023/06/26 02:27:42;;;;;;;4.72;1.33;;;27.90;99.90;;;;;;5084149;28;20024;-59
2023/06/26 02:30:09;;;;;;;5.30;1.80;;;27.90;99.90;;;;;;5092811;28;20028;-60
2023/06/26 02:32:36;;;;;;;6.28;1.42;;;27.90;99.90;;;;;;5084915;28;20066;-59
2023/06/26 02:35:02;;;;;;;5.65;1.80;;;27.90;99.90;;;;;;5082816;28;20046;-59
2023/06/26 02:37:29;;;;;;;7.05;1.35;;;27.90;99.90;;;;;;5084641;28;20048;-60
2023/06/26 02:39:55;;;;;;;3.22;1.42;;;27.90;99.90;;;;;;5083412;28;20025;-59
2023/06/26 02:42:22;;;;;;;3.65;1.50;;;27.80;99.90;;;;;;5084430;28;20316;-59
2023/06/26 02:44:48;;;;;;;5.32;1.35;;;27.90;99.90;;;;;;5084044;28;20032;-61
2023/06/26 02:47:15;;;;;;;5.07;1.30;;;27.80;99.90;;;;;;5084630;28;20028;-59
2023/06/26 02:49:41;;;;;;;4.55;1.30;;;27.80;99.90;;;;;;5082104;28;20020;-59
2023/06/26 02:52:08;;;;;;;6.63;1.42;;;27.80;99.90;;;;;;5083314;28;20040;-59
2023/06/26 02:54:34;;;;;;;6.80;1.30;;;27.80;99.90;;;;;;5064942;28;20025;-55
2023/06/26 02:57:01;;;;;;;9.25;1.52;;;27.80;99.90;;;;;;5063962;28;20277;-54
2023/06/26 02:59:27;;;;;;;4.82;1.70;;;28.00;99.90;;;;;;5074817;28;20056;-53
2023/06/26 03:01:54;;;;;;;14.48;3.60;;;28.10;99.90;;;;;;5084136;28;20027;-57
2023/06/26 03:04:21;;;;;;;8.60;5.25;;;28.20;99.90;;;;;;5083731;28;20235;-53
2023/06/26 03:06:48;;;;;;;7.13;4.00;;;28.20;99.90;;;;;;5084092;28;20216;-56
2023/06/26 03:09:16;;;;;;;10.02;3.25;;;28.10;99.90;;;;;;5085062;28;20004;-61
2023/06/26 03:11:42;;;;;;;4.78;2.33;;;28.10;99.90;;;;;;5092418;28;20020;-55
2023/06/26 03:14:09;;;;;;;6.63;2.13;;;28.10;99.90;;;;;;5082643;28;20055;-57
2023/06/26 03:16:35;;;;;;;7.10;2.63;;;28.10;99.90;;;;;;5084280;28;20021;-58
2023/06/26 03:19:02;;;;;;;6.22;2.17;;;28.10;99.90;;;;;;5084099;28;20309;-55
2023/06/26 03:21:28;;;;;;;4.13;1.80;;;28.10;99.90;;;;;;5084010;28;20056;-55
2023/06/26 03:23:55;;;;;;;8.32;1.70;;;28.10;99.90;;;;;;5083651;28;20258;-55
2023/06/26 03:26:27;;;;;;;7.10;1.92;;;28.10;99.90;;;;;;5076618;28;20033;-55
2023/06/26 03:28:53;;;;;;;;;;;28.20;99.90;;;;;;5074311;28;20028;-60
2023/06/26 03:31:20;;;;;;;8.10;1.67;;;28.10;99.90;;;;;;5082142;28;19912;-58
2023/06/26 03:33:47;;;;;;;6.25;1.48;;;28.10;99.90;;;;;;5081963;28;20024;-66
2023/06/26 03:36:13;;;;;;;8.27;1.50;;;28.10;99.90;;;;;;5081922;28;20036;-55
2023/06/26 03:38:40;;;;;;;6.55;1.35;;;28.00;99.90;;;;;;5082273;28;20016;-58
2023/06/26 03:41:06;;;;;;;8.50;1.45;;;28.00;99.90;;;;;;5082472;28;20078;-55
2023/06/26 03:43:33;;;;;;;7.07;1.20;;;28.00;99.90;;;;;;5083102;28;20028;-57
2023/06/26 03:46:00;;;;;;;8.50;1.35;;;28.10;99.90;;;;;;5082769;28;20024;-55
2023/06/26 03:48:27;;;;;;;5.05;1.77;;;28.00;99.90;;;;;;5082791;28;20025;-53
2023/06/26 03:50:54;;;;;;;4.72;1.40;;;28.00;99.90;;;;;;5083457;28;20096;-57
2023/06/26 03:53:20;;;;;;;8.38;1.80;;;28.00;99.90;;;;;;5077576;28;20029;-55
2023/06/26 03:55:47;;;;;;;5.70;1.50;;;28.00;99.90;;;;;;5073969;28;20092;-53
2023/06/26 03:58:13;;;;;;;9.07;1.70;;;28.10;99.90;;;;;;5076225;28;20123;-49
2023/06/26 04:00:40;;;;;;;3.38;1.50;;;28.00;99.90;;;;;;5086753;28;20100;-53
2023/06/26 04:03:07;;;;;;;4.13;1.35;;;28.00;99.90;;;;;;5086684;28;20092;-52
2023/06/26 04:05:34;;;;;;;5.90;1.65;;;28.00;99.90;;;;;;5086761;28;20028;-48
2023/06/26 04:08:00;;;;;;;6.68;1.30;;;27.90;99.90;;;;;;5085947;28;20032;-52
2023/06/26 04:10:27;;;;;;;4.80;1.30;;;28.00;99.90;;;;;;5085330;28;20051;-55
2023/06/26 04:12:53;;;;;;;5.45;1.65;;;28.00;99.90;;;;;;5086464;28;20383;-50
2023/06/26 04:15:20;;;;;;;4.53;1.40;;;27.90;99.90;;;;;;5086348;28;20020;-55
2023/06/26 04:17:46;;;;;;;4.78;1.40;;;27.90;99.90;;;;;;5086261;28;20032;-52
2023/06/26 04:20:13;;;;;;;4.18;1.08;;;27.90;99.90;;;;;;5086554;28;20074;-53
2023/06/26 04:22:39;;;;;;;7.55;1.63;;;27.90;99.90;;;;;;5086715;28;20028;-49
2023/06/26 04:25:06;;;;;;;4.32;1.10;;;27.90;99.90;;;;;;5086309;28;20037;-52
2023/06/26 04:27:33;;;;;;;4.20;1.13;;;27.80;99.90;;;;;;5087395;28;20036;-58
2023/06/26 04:29:59;;;;;;;5.05;0.90;;;27.90;99.90;;;;;;5086098;28;20083;-52
2023/06/26 04:32:26;;;;;;;5.20;1.20;;;27.80;99.90;;;;;;5086679;28;20028;-54
2023/06/26 04:34:53;;;;;;;5.90;1.20;;;27.80;99.90;;;;;;5086150;28;20020;-51
2023/06/26 04:37:20;;;;;;;4.00;1.10;;;27.80;99.90;;;;;;5086354;28;20025;-52
2023/06/26 04:39:46;;;;;;;4.65;1.10;;;27.80;99.90;;;;;;5086294;28;20042;-55
2023/06/26 04:42:13;;;;;;;5.90;1.20;;;27.80;99.90;;;;;;5086431;28;20028;-52
2023/06/26 04:44:40;;;;;;;4.63;1.25;;;27.80;99.90;;;;;;5085939;28;20032;-54
2023/06/26 04:47:08;;;;;;;9.48;1.70;;;27.80;99.90;;;;;;5086340;28;20036;-56
2023/06/26 04:49:34;;;;;;;8.90;3.00;;;27.80;99.90;;;;;;5086174;28;20020;-52
2023/06/26 04:52:01;;;;;;;8.93;5.85;;;27.80;99.90;;;;;;5086021;28;20029;-56
2023/06/26 04:54:30;;;;;;;9.60;5.70;;;27.80;99.90;;;;;;5085976;28;20030;-62
2023/06/26 04:56:56;;;;;;;10.75;5.70;;;27.80;99.90;;;;;;5085548;28;20049;-54
2023/06/26 04:59:23;;;;;;;14.07;6.50;;;27.80;99.90;;;;;;5085580;28;20190;-53
2023/06/26 05:01:49;;;;;;;12.52;7.40;;;27.80;99.90;;;;;;5085865;28;20245;-57
2023/06/26 05:04:16;;;;;;;10.35;6.28;;;27.70;99.90;;;;;;5085585;28;20024;-56
2023/06/26 05:06:43;;;;;;;12.02;4.70;;;27.80;99.90;;;;;;5085598;28;20029;-56
2023/06/26 05:09:10;;;;;;;11.60;3.60;;;27.80;99.90;;;;;;5085784;28;20304;-54
2023/06/26 05:11:37;;;;;;;7.95;3.40;;;27.80;99.90;;;;;;5085653;28;20024;-53
2023/06/26 05:14:07;;;;;;;8.52;2.50;;;27.80;99.90;;;;;;5085367;28;20034;-53
2023/06/26 05:16:34;;;;;;;9.82;2.70;;;27.70;99.90;;;;;;5085653;28;20039;-55
2023/06/26 05:19:00;;;;;;;8.68;2.60;;;27.70;99.90;;;;;;5085554;28;20070;-55
2023/06/26 05:21:27;;;;;;;7.18;2.10;;;27.70;99.90;;;;;;5085254;28;20032;-54
2023/06/26 05:23:58;;;;;;;5.70;2.10;;;27.70;99.90;;;;;;5085171;28;20040;-55
2023/06/26 05:26:25;;;;;;;6.28;2.03;;;27.70;99.90;;;;;;5085393;28;20024;-54
2023/06/26 05:28:52;;;;;;;3.97;1.77;;;27.70;99.90;;;;;;5085117;28;20151;-55
2023/06/26 05:31:19;;;;;;;5.50;1.83;;;27.70;99.90;;;;;;5085444;28;20218;-55
2023/06/26 05:33:46;;;;;;;7.15;1.58;;;27.60;99.90;;;;;;5085234;28;20067;-58
2023/06/26 05:36:15;;;;;;;4.43;1.52;;;27.60;99.90;;;;;;5085046;28;20025;-59
2023/06/26 05:38:42;;;;;;;7.85;1.42;;;27.60;99.90;;;;;;5084867;28;20215;-60
2023/06/26 05:41:09;;;;;;;7.75;1.40;;;27.70;99.90;;;;;;5085461;28;20033;-61
2023/06/26 05:43:35;;;;;;;7.45;1.10;;;27.70;99.90;;;;;;5085107;28;20142;-62
2023/06/26 05:46:02;;;;;;;3.58;1.20;;;27.70;99.90;;;;;;5085393;28;20047;-57
2023/06/26 05:48:28;;;;;;;4.80;1.10;;;27.70;99.90;;;;;;5084922;28;20074;-61
2023/06/26 05:50:55;;;;;;;2.55;1.08;;;27.70;99.90;;;;;;5084739;28;20066;-57
2023/06/26 05:53:22;;;;;;;5.45;1.33;;;27.70;99.90;;;;;;5084782;28;20029;-59
2023/06/26 05:55:48;;;;;;;2.45;0.90;;;27.70;99.90;;;;;;5084770;28;20024;-59
2023/06/26 05:58:16;;;;;;;8.00;1.20;;;27.70;99.90;;;;;;5084713;28;20036;-57
2023/06/26 06:00:42;;;;;;;3.00;0.90;;;27.70;99.90;;;;;;5084781;28;20257;-58
2023/06/26 06:03:10;;;;;;;3.47;1.10;;;27.70;99.90;;;;;;5084519;28;20091;-57
2023/06/26 06:05:37;;;;;;;6.38;1.20;;;27.70;99.90;;;;;;5084508;28;20027;-59
2023/06/26 06:08:04;;;;;;;4.82;1.60;;;27.70;99.90;;;;;;5084569;28;20100;-58
2023/06/26 06:10:30;;;;;;;5.20;1.73;;;27.70;99.90;;;;;;5084348;28;20031;-58
2023/06/26 06:12:57;;;;;;;3.90;1.50;;;27.70;99.90;;;;;;5083963;28;20079;-57
2023/06/26 06:15:23;;;;;;;6.35;1.63;;;27.80;99.90;;;;;;5082383;28;20028;-56
2023/06/26 06:17:50;;;;;;;6.95;1.48;;;27.70;99.90;;;;;;5077358;28;20020;-59
2023/06/26 06:20:19;;;;;;;6.25;1.60;;;27.80;99.90;;;;;;5084209;28;20028;-49
2023/06/26 06:22:48;;;;;;;4.68;1.58;;;27.80;99.90;;;;;;5084140;28;20339;-53
2023/06/26 06:25:15;;;;;;;3.60;1.40;;;27.80;99.90;;;;;;5084125;28;20027;-53
2023/06/26 06:27:43;;;;;;;5.32;1.58;;;27.80;99.90;;;;;;5084548;28;20032;-55
2023/06/26 06:30:10;;;;;;;2.42;1.17;;;27.70;99.90;;;;;;5084213;28;20028;-53
2023/06/26 06:32:36;;;;;;;7.10;1.30;;;27.70;99.90;;;;;;5084616;28;20059;-52
2023/06/26 06:35:09;;;;;;;4.82;1.40;;;27.70;99.90;;;;;;5083972;28;20280;-53
2023/06/26 06:37:39;;;;;;;4.38;1.45;;;27.70;99.90;;;;;;5084662;28;20047;-53
2023/06/26 06:40:10;;;;;;;8.25;1.55;;;27.70;99.90;;;;;;5084209;28;20043;-52
2023/06/26 06:42:36;;;;;;;4.97;1.42;;;27.70;99.90;;;;;;5083843;28;20047;-56
2023/06/26 06:45:04;;;;;;;4.95;1.10;;;27.70;99.90;;;;;;5084027;28;20047;-55
2023/06/26 06:47:32;;;;;;;7.28;1.48;;;27.70;99.90;;;;;;5084197;28;20212;-57
2023/06/26 06:50:03;;;;;;;4.47;1.30;;;27.70;99.90;;;;;;5083751;28;20193;-57
2023/06/26 06:52:30;;;;;;;7.20;1.33;;;27.80;99.90;;;;;;5084450;28;20035;-49
2023/06/26 06:55:05;;;;;;;6.75;1.30;;;27.70;99.90;;;;;;5083778;28;20042;-52
2023/06/26 06:57:35;;;;;;;10.18;1.48;;;27.70;99.90;;;;;;5083817;28;20112;-57
2023/06/26 07:00:10;;;;;;;5.45;1.40;;;27.70;99.90;;;;;;5083763;28;20248;-56
2023/06/26 07:02:37;;;;;;;6.07;1.10;;;27.70;99.90;;;;;;5084146;28;20028;-58
2023/06/26 07:05:05;;;;;;;3.80;1.13;;;27.70;99.90;;;;;;5083678;28;20060;-60
2023/06/26 07:07:32;;;;;;;9.25;1.45;;;27.70;99.90;;;;;;5084032;28;20034;-52
2023/06/26 07:10:08;;;;;;;3.60;1.40;;;27.70;99.90;;;;;;5083663;28;20017;-54
2023/06/26 07:12:35;;;;;;;4.57;1.27;;;27.70;99.90;;;;;;5084342;28;20186;-53
2023/06/26 07:15:04;;;;;;;11.77;1.70;;;27.70;99.90;;;;;;5083581;28;20058;-53
2023/06/26 07:17:31;;;;;;;4.18;1.30;;;27.70;99.90;;;;;;5084036;28;20036;-52
2023/06/26 07:19:59;;;;;;;4.10;1.30;;;27.70;99.90;;;;;;5083564;28;20020;-53
2023/06/26 07:22:25;;;;;;;3.90;1.30;;;27.80;99.90;;;;;;5083898;28;20029;-52
2023/06/26 07:24:52;;;;;;;3.80;1.08;;;27.70;99.90;;;;;;5083783;28;20036;-52
2023/06/26 07:27:20;;;;;;;7.22;1.33;;;27.70;99.90;;;;;;5083337;28;20070;-53
2023/06/26 07:29:46;;;;;;;3.85;1.17;;;27.80;99.90;;;;;;5085783;28;20020;-54
2023/06/26 07:32:13;;;;;;;5.03;1.33;;;27.80;99.90;;;;;;5088058;28;20040;-53
2023/06/26 07:34:39;;;;;;;2.78;1.17;;;27.80;99.90;;;;;;5087455;28;20217;-54
2023/06/26 07:37:07;;;;;;;6.53;1.67;;;27.80;99.90;;;;;;5087647;28;20350;-55
2023/06/26 07:39:34;;;;;;;6.28;1.42;;;27.70;99.90;;;;;;5087306;28;20044;-56
2023/06/26 07:42:00;;;;;;;7.45;1.52;;;27.80;99.90;;;;;;5087885;28;20239;-57
2023/06/26 07:44:27;;;;;;;7.35;1.38;;;27.70;99.90;;;;;;5087043;28;20268;-56
2023/06/26 07:46:53;;;;;;;4.32;1.30;;;27.70;99.90;;;;;;5087372;28;20040;-58
2023/06/26 07:49:20;;;;;;;2.97;1.10;;;27.80;99.90;;;;;;5087173;28;20095;-55
2023/06/26 07:51:46;;;;;;;7.20;1.40;;;27.80;99.90;;;;;;5087266;28;20029;-55
2023/06/26 07:54:13;;;;;;;7.78;1.67;;;27.70;99.90;;;;;;5087262;28;20039;-57
2023/06/26 07:56:56;;;;;;;3.45;1.13;;;27.80;99.90;;;;;;5086998;28;20045;-54
2023/06/26 07:59:25;;;;;;;6.47;1.33;;;27.80;99.90;;;;;;5086823;28;20036;-52
2023/06/26 08:01:52;;;;;;;4.13;1.00;;;27.80;99.90;;;;;;5087074;28;20031;-52
2023/06/26 08:04:20;;;;;;;4.30;0.90;;;27.80;99.90;;;;;;5086706;28;20197;-53
2023/06/26 08:06:52;;;;;;;5.38;1.30;;;27.80;99.90;;;;;;5086769;28;20110;-53
2023/06/26 08:09:19;;;;;;;5.53;1.13;;;27.80;99.90;;;;;;5086701;28;20035;-56
2023/06/26 08:11:46;;;;;;;4.30;1.20;;;27.80;99.90;;;;;;5086620;28;20419;-57
2023/06/26 08:14:13;;;;;;;4.40;1.27;;;27.90;99.90;;;;;;5086510;28;20021;-54
2023/06/26 08:16:41;;;;;;;4.35;1.15;;;27.90;99.90;;;;;;5086785;28;20036;-52
2023/06/26 08:19:08;;;;;;;9.80;1.52;;;27.80;99.90;;;;;;5086527;28;20036;-53
2023/06/26 08:21:35;;;;;;;5.03;1.15;;;27.80;99.90;;;;;;5086939;28;20031;-57
2023/06/26 08:24:02;;;;;;;5.15;1.25;;;27.80;99.90;;;;;;5086730;28;20047;-54
2023/06/26 08:26:28;;;;;;;8.15;1.80;;;27.80;99.90;;;;;;5086383;28;20327;-54
2023/06/26 08:28:55;;;;;;;4.65;1.45;;;27.80;99.90;;;;;;5086212;28;20262;-53
2023/06/26 08:31:22;;;;;;;4.43;1.25;;;27.80;99.90;;;;;;5086538;28;20029;-57
2023/06/26 08:33:48;;;;;;;4.47;1.23;;;27.80;99.90;;;;;;5086170;28;20078;-56
2023/06/26 08:36:15;;;;;;;3.67;1.20;;;27.90;99.90;;;;;;5086315;28;20031;-59
2023/06/26 08:38:41;;;;;;;4.32;1.20;;;27.90;99.90;;;;;;5086162;28;20050;-58
2023/06/26 08:41:08;;;;;;;6.93;1.23;;;27.90;99.90;;;;;;5086066;28;20216;-61
2023/06/26 08:43:36;;;;;;;4.85;1.27;;;27.90;99.90;;;;;;5085949;28;20043;-59
2023/06/26 08:46:03;;;;;;;5.20;1.20;;;27.90;99.90;;;;;;5086005;28;20032;-56
2023/06/26 08:48:36;;;;;;;2.55;0.85;;;27.90;99.90;;;;;;5085814;28;20028;-57
2023/06/26 08:51:11;;;;;;;5.22;1.38;;;27.90;99.90;;;;;;5085988;28;20025;-60
2023/06/26 08:53:38;;;;;;;6.13;1.17;;;27.90;99.90;;;;;;5086239;28;20028;-59
2023/06/26 08:56:06;;;;;;;4.82;1.40;;;27.90;99.90;;;;;;5085608;28;20021;-58
2023/06/26 08:58:33;;;;;;;4.78;2.00;;;27.90;99.90;;;;;;5085707;28;20094;-56
2023/06/26 09:01:00;;;;;;;6.97;2.60;;;27.90;99.90;;;;;;5085779;28;20025;-56
2023/06/26 09:03:27;;;;;;;12.43;3.38;;;27.90;99.90;;;;;;5085563;28;20023;-58
2023/06/26 09:05:54;;;;;;;9.35;3.58;;;27.90;99.90;;;;;;5086027;28;20024;-59
2023/06/26 09:08:20;;;;;;;11.50;4.20;;;27.90;99.90;;;;;;5083979;28;20018;-59
2023/06/26 09:10:47;;;;;;;8.70;3.50;;;27.90;99.90;;;;;;5085498;28;20043;-59
2023/06/26 09:13:13;;;;;;;7.22;2.58;;;28.00;99.90;;;;;;5085438;28;20017;-53
2023/06/26 09:15:44;;;;;;;8.13;2.50;;;27.90;99.90;;;;;;5085394;28;20099;-58
2023/06/26 09:18:11;;;;;;;8.63;2.70;;;27.90;99.90;;;;;;5085213;28;20024;-57
2023/06/26 09:20:38;;;;;;;7.40;1.83;;;27.90;99.90;;;;;;5085372;28;20028;-58
2023/06/26 09:23:05;;;;;;;4.30;1.58;;;27.90;99.90;;;;;;5085234;28;20063;-51
2023/06/26 09:25:32;;;;;;;10.18;1.70;;;27.90;99.90;;;;;;5085407;28;20130;-53
2023/06/26 09:27:59;;;;;;;7.28;1.60;;;28.00;99.90;;;;;;5089992;28;20449;-53
2023/06/26 09:30:26;;;;;;;8.80;1.55;;;27.90;99.90;;;;;;5090206;28;20308;-57
2023/06/26 09:32:54;;;;;;;3.58;1.30;;;27.90;99.90;;;;;;5085034;28;20020;-54
2023/06/26 09:35:20;;;;;;;4.00;1.27;;;27.90;99.90;;;;;;5085029;28;20060;-53
2023/06/26 09:37:47;;;;;;;5.90;0.88;;;27.90;99.90;;;;;;5084937;28;20035;-52
2023/06/26 09:40:15;;;;;;;4.63;0.85;;;28.00;99.90;;;;;;5084881;28;20025;-54
2023/06/26 09:42:42;;;;;;;4.35;0.98;;;28.00;99.90;;;;;;5085333;28;20047;-56
2023/06/26 09:45:19;;;;;;;3.38;0.90;;;28.00;99.90;;;;;;5084927;28;20048;-55
2023/06/26 09:47:46;;;;;;;3.85;0.90;;;28.00;99.90;;;;;;5084472;28;20328;-55
2023/06/26 09:50:23;;;;;;;4.30;1.02;;;28.00;99.90;;;;;;5084488;28;20261;-55
2023/06/26 09:52:52;;;;;;;9.80;7.60;;;28.00;99.90;;;;;;5083861;28;20070;-53
2023/06/26 09:55:23;;;;;;;4.03;3.00;;;28.00;99.90;;;;;;5084584;28;20020;-59
2023/06/26 09:57:56;;;;;;;3.55;1.92;;;28.00;99.90;;;;;;5084502;28;20106;-54
2023/06/26 10:00:23;;;;;;;6.50;2.30;;;28.00;99.90;;;;;;5084314;28;20040;-55
2023/06/26 10:02:49;;;;;;;3.78;1.50;;;28.00;99.90;;;;;;5084510;28;20374;-58
2023/06/26 10:05:16;;;;;;;5.07;1.55;;;27.90;99.90;;;;;;5084439;28;20251;-56
2023/06/26 10:07:42;;;;;;;10.27;3.60;;;27.80;99.90;;;;;;5084754;28;20024;-56
2023/06/26 10:10:10;;;;;;;14.07;3.72;;;27.80;99.90;;;;;;5084408;28;20313;-55
2023/06/26 10:12:36;;;;;;;12.98;3.80;;;27.80;99.90;;;;;;5084815;28;20066;-54
2023/06/26 10:15:04;;;;;;;17.77;3.45;;;27.70;99.90;;;;;;5084237;28;20334;-56
2023/06/26 10:17:36;;;;;;;10.25;2.55;;;27.70;99.90;;;;;;5084705;28;20036;-58
2023/06/26 10:20:05;;;;;;;9.93;2.70;;;27.60;99.90;;;;;;5084300;28;20243;-55
2023/06/26 10:22:37;;;;;;;8.05;2.17;;;27.60;99.90;;;;;;5084494;28;20303;-58
2023/06/26 10:25:07;;;;;;;10.15;2.67;;;27.70;99.90;;;;;;5084240;28;20035;-58
2023/06/26 10:27:38;;;;;;;15.52;3.83;;;27.60;99.90;;;;;;5084433;28;20040;-55
2023/06/26 10:30:09;;;;;;;15.95;3.80;;;27.60;99.90;;;;;;5083731;28;20024;-54
2023/06/26 10:32:37;;;;;;;10.50;2.60;;;27.60;99.90;;;;;;5084639;28;20029;-55
2023/06/26 10:35:06;;;;;;;8.73;2.80;;;27.60;99.90;;;;;;5083979;28;20021;-53
2023/06/26 10:37:46;;;;;;;12.50;2.55;;;27.60;99.90;;;;;;5084500;28;20024;-54
2023/06/26 10:40:14;;;;;;;12.25;2.30;;;27.70;99.90;;;;;;5083966;28;20020;-54
2023/06/26 10:42:41;;;;;;;9.20;1.98;;;27.70;99.90;;;;;;5083884;28;20324;-57
2023/06/26 10:45:20;;;;;;;7.68;2.00;;;27.70;99.90;;;;;;5083865;28;20067;-59
2023/06/26 10:47:48;;;;;;;6.53;1.77;;;27.70;99.90;;;;;;5083595;28;20040;-54
2023/06/26 10:50:19;;;;;;;9.85;1.70;;;27.60;99.90;;;;;;5083852;28;20452;-54
2023/06/26 10:52:46;;;;;;;8.45;1.40;;;27.60;99.90;;;;;;5083328;28;20325;-54
2023/06/26 10:55:14;;;;;;;7.35;1.45;;;27.60;99.90;;;;;;5083667;28;20021;-54
2023/06/26 10:57:46;;;;;;;8.13;1.77;;;27.60;99.90;;;;;;5083667;28;20102;-56
2023/06/26 11:00:15;;;;;;;8.65;1.60;;;27.70;99.90;;;;;;5083480;28;20041;-53
2023/06/26 11:02:51;;;;;;;4.55;1.65;;;27.70;99.90;;;;;;5084266;28;20059;-55
2023/06/26 11:05:36;;;;;;;7.35;1.75;;;27.60;99.90;;;;;;5086623;28;20034;-54
2023/06/26 11:08:16;;;;;;;6.97;1.40;;;27.70;99.90;;;;;;5087942;28;20044;-58
2023/06/26 11:10:53;;;;;;;7.90;1.63;;;27.70;99.90;;;;;;5087053;28;20315;-62
2023/06/26 11:13:20;;;;;;;11.02;2.00;;;27.70;99.90;;;;;;5087688;28;20079;-56
2023/06/26 11:15:49;;;;;;;10.82;1.73;;;27.80;99.90;;;;;;5087741;28;20032;-56
2023/06/26 11:18:16;;;;;;;10.27;1.98;;;27.80;99.90;;;;;;5087625;28;20100;-58
2023/06/26 11:20:42;;;;;;;14.30;1.95;;;27.80;99.90;;;;;;5087676;28;20029;-55
2023/06/26 11:23:10;;;;;;;11.70;1.77;;;27.90;99.90;;;;;;5087297;28;20029;-55
2023/06/26 11:25:37;;;;;;;8.80;2.08;;;27.90;99.90;;;;;;5085186;28;20036;-65
2023/06/26 11:28:05;;;;;;;4.38;1.50;;;27.80;99.90;;;;;;5087254;28;20020;-60
2023/06/26 11:30:32;;;;;;;6.40;2.05;;;27.80;99.90;;;;;;5086145;28;20097;-58
2023/06/26 11:33:09;;;;;;;7.03;1.60;;;27.90;99.90;;;;;;5086234;28;20247;-56
2023/06/26 11:35:35;;;;;;;4.32;1.40;;;27.80;99.90;;;;;;5085921;28;20062;-63
2023/06/26 11:38:06;;;;;;;3.63;1.30;;;27.80;99.90;;;;;;5085648;28;20051;-63
2023/06/26 11:40:36;;;;;;;6.10;1.63;;;27.70;99.90;;;;;;5085825;28;20021;-61
2023/06/26 11:43:04;;;;;;;7.50;1.77;;;27.70;99.90;;;;;;5085348;28;20032;-61
2023/06/26 11:45:32;;;;;;;3.08;0.85;;;27.80;99.90;;;;;;5086329;28;20017;-60
2023/06/26 11:48:00;;;;;;;5.70;1.17;;;27.80;99.90;;;;;;5087186;28;20362;-59
2023/06/26 11:50:27;;;;;;;8.20;1.30;;;27.80;99.90;;;;;;5087095;28;20028;-57
2023/06/26 11:52:58;;;;;;;6.28;0.85;;;27.80;99.90;;;;;;5087065;28;20020;-59
2023/06/26 11:55:26;;;;;;;4.20;1.02;;;27.90;99.90;;;;;;5087141;28;20057;-57
2023/06/26 11:57:56;;;;;;;2.03;0.77;;;27.90;99.90;;;;;;5086572;28;20150;-58
2023/06/26 12:00:23;;;;;;;5.10;0.90;;;27.90;99.90;;;;;;5086731;28;20091;-60
2023/06/26 12:02:51;;;;;;;3.13;0.82;;;27.90;99.90;;;;;;5086578;28;20084;-56
2023/06/26 12:05:19;;;;;;;2.53;1.27;;;28.00;99.90;;;;;;5086822;28;20056;-58
2023/06/26 12:07:50;;;;;;;4.18;1.17;;;28.00;99.90;;;;;;5085420;28;20225;-62
2023/06/26 12:10:17;;;;;;;7.60;1.10;;;28.00;99.90;;;;;;5085953;28;20025;-59
2023/06/26 12:12:44;;;;;;;3.03;1.00;;;27.90;99.90;;;;;;5086047;28;20028;-55
2023/06/26 12:15:14;;;;;;;4.38;1.50;;;28.00;99.90;;;;;;5083970;28;20047;-63
2023/06/26 12:17:42;;;;;;;3.85;1.50;;;28.00;99.90;;;;;;5086447;28;20031;-61
2023/06/26 12:20:22;;;;;;;1.70;1.10;;;28.00;99.90;;;;;;5084762;28;20119;-58
2023/06/26 12:22:49;;;;;;;5.00;1.23;;;28.10;99.90;;;;;;5084742;28;20029;-61
2023/06/26 12:25:21;;;;;;;3.75;1.10;;;28.10;99.90;;;;;;5084771;28;20067;-62
2023/06/26 12:27:48;;;;;;;3.75;1.20;;;28.10;99.90;;;;;;5084445;28;20066;-61
2023/06/26 12:30:14;;;;;;;3.80;0.95;;;28.10;99.90;;;;;;5084635;28;20039;-59
2023/06/26 12:32:46;;;;;;;2.00;0.93;;;28.20;99.90;;;;;;5085120;28;20032;-60
2023/06/26 12:35:12;;;;;;;2.13;0.90;;;28.20;99.90;;;;;;5086787;28;20021;-62
2023/06/26 12:37:43;;;;;;;1.67;0.80;;;28.30;99.90;;;;;;5087652;28;20041;-63
2023/06/26 12:40:22;;;;;;;3.35;1.00;;;28.20;99.90;;;;;;5087101;28;20020;-64
2023/06/26 12:42:48;;;;;;;2.58;1.10;;;28.30;99.90;;;;;;5087115;28;20208;-64
2023/06/26 12:45:15;;;;;;;2.78;1.27;;;28.30;99.90;;;;;;5086824;28;20020;-59
2023/06/26 12:47:42;;;;;;;3.17;1.10;;;28.30;99.90;;;;;;5087183;28;20032;-56
2023/06/26 12:50:09;;;;;;;1.70;1.30;;;28.30;99.90;;;;;;5086944;28;20028;-57